SPC weather

La Palma Airport
Sta Cruz de la Palma, La Palma Island, Canary Islands, Spain

Public forecast

Using degrees Celsius for public forecast. Weather courtesy of forecast.io.

METAR (pilot weather report)

Retrieved 2019/05/22 14:30 UTC (27 minutes ago):

GCLA 221430Z 03015KT 360V070 9999 FEW034 23/16 Q1020

TAF (pilot weather forecast)

Retrieved 2019/05/22 15:27 UTC (0 seconds ago):

TAF GCLA 221400Z 2215/2315 02015KT 9999 FEW040 TX24/2314Z TN20/2306Z